sensor_id;sensor_type;location;lat;lon;timestamp;P1;durP1;ratioP1;P2;durP2;ratioP2
14766;SDS011;7475;53.558;9.970;2023-04-15T00:01:29;5.55;;;4.85;;
14766;SDS011;7475;53.558;9.970;2023-04-15T00:03:57;7.10;;;5.20;;
14766;SDS011;7475;53.558;9.970;2023-04-15T00:06:23;6.75;;;5.13;;
14766;SDS011;7475;53.558;9.970;2023-04-15T00:08:48;5.95;;;5.03;;
14766;SDS011;7475;53.558;9.970;2023-04-15T00:11:15;6.50;;;4.95;;
14766;SDS011;7475;53.558;9.970;2023-04-15T00:13:40;6.05;;;4.28;;
14766;SDS011;7475;53.558;9.970;2023-04-15T00:16:06;5.18;;;4.68;;
14766;SDS011;7475;53.558;9.970;2023-04-15T00:18:32;6.20;;;5.57;;
14766;SDS011;7475;53.558;9.970;2023-04-15T00:20:57;5.78;;;5.28;;
14766;SDS011;7475;53.558;9.970;2023-04-15T00:23:23;5.43;;;4.60;;
14766;SDS011;7475;53.558;9.970;2023-04-15T00:25:48;4.88;;;4.40;;
14766;SDS011;7475;53.558;9.970;2023-04-15T00:28:13;4.37;;;3.97;;
14766;SDS011;7475;53.558;9.970;2023-04-15T00:30:38;4.60;;;4.20;;
14766;SDS011;7475;53.558;9.970;2023-04-15T00:33:04;4.15;;;3.72;;
14766;SDS011;7475;53.558;9.970;2023-04-15T00:35:29;5.07;;;4.13;;
14766;SDS011;7475;53.558;9.970;2023-04-15T00:37:57;8.18;;;7.07;;
14766;SDS011;7475;53.558;9.970;2023-04-15T00:40:23;7.32;;;4.70;;
14766;SDS011;7475;53.558;9.970;2023-04-15T00:42:48;4.10;;;3.70;;
14766;SDS011;7475;53.558;9.970;2023-04-15T00:45:14;4.00;;;3.70;;
14766;SDS011;7475;53.558;9.970;2023-04-15T00:47:42;5.97;;;4.38;;
14766;SDS011;7475;53.558;9.970;2023-04-15T00:50:08;4.93;;;4.45;;
14766;SDS011;7475;53.558;9.970;2023-04-15T00:52:34;4.25;;;3.85;;
14766;SDS011;7475;53.558;9.970;2023-04-15T00:54:59;5.55;;;3.97;;
14766;SDS011;7475;53.558;9.970;2023-04-15T00:57:24;5.40;;;3.97;;
14766;SDS011;7475;53.558;9.970;2023-04-15T00:59:50;7.15;;;5.40;;
14766;SDS011;7475;53.558;9.970;2023-04-15T01:02:16;7.47;;;6.45;;
14766;SDS011;7475;53.558;9.970;2023-04-15T01:04:41;4.82;;;4.32;;
14766;SDS011;7475;53.558;9.970;2023-04-15T01:07:07;4.35;;;3.95;;
14766;SDS011;7475;53.558;9.970;2023-04-15T01:09:33;4.35;;;3.95;;
14766;SDS011;7475;53.558;9.970;2023-04-15T01:11:58;5.10;;;3.95;;
14766;SDS011;7475;53.558;9.970;2023-04-15T01:14:24;4.97;;;4.00;;
14766;SDS011;7475;53.558;9.970;2023-04-15T01:16:49;4.60;;;4.15;;
14766;SDS011;7475;53.558;9.970;2023-04-15T01:19:16;4.75;;;4.25;;
14766;SDS011;7475;53.558;9.970;2023-04-15T01:21:42;6.45;;;5.47;;
14766;SDS011;7475;53.558;9.970;2023-04-15T01:24:10;4.50;;;4.05;;
14766;SDS011;7475;53.558;9.970;2023-04-15T01:26:39;5.10;;;4.38;;
14766;SDS011;7475;53.558;9.970;2023-04-15T01:29:04;4.97;;;4.47;;
14766;SDS011;7475;53.558;9.970;2023-04-15T01:31:30;5.65;;;4.55;;
14766;SDS011;7475;53.558;9.970;2023-04-15T01:33:55;5.45;;;4.95;;
14766;SDS011;7475;53.558;9.970;2023-04-15T01:36:21;4.88;;;4.43;;
14766;SDS011;7475;53.558;9.970;2023-04-15T01:38:46;5.88;;;5.15;;
14766;SDS011;7475;53.558;9.970;2023-04-15T01:41:15;5.63;;;5.13;;
14766;SDS011;7475;53.558;9.970;2023-04-15T01:43:40;6.78;;;5.90;;
14766;SDS011;7475;53.558;9.970;2023-04-15T01:46:05;6.15;;;5.03;;
14766;SDS011;7475;53.558;9.970;2023-04-15T01:48:31;5.75;;;5.10;;
14766;SDS011;7475;53.558;9.970;2023-04-15T01:50:56;5.32;;;4.82;;
14766;SDS011;7475;53.558;9.970;2023-04-15T01:53:22;5.60;;;5.10;;
14766;SDS011;7475;53.558;9.970;2023-04-15T01:55:47;6.43;;;5.45;;
14766;SDS011;7475;53.558;9.970;2023-04-15T01:58:12;5.65;;;5.07;;
14766;SDS011;7475;53.558;9.970;2023-04-15T02:00:37;5.07;;;4.65;;
14766;SDS011;7475;53.558;9.970;2023-04-15T02:03:03;5.68;;;5.13;;
14766;SDS011;7475;53.558;9.970;2023-04-15T02:05:28;5.82;;;5.20;;
14766;SDS011;7475;53.558;9.970;2023-04-15T02:07:53;5.32;;;4.82;;
14766;SDS011;7475;53.558;9.970;2023-04-15T02:10:18;6.07;;;5.40;;
14766;SDS011;7475;53.558;9.970;2023-04-15T02:12:43;6.22;;;5.45;;
14766;SDS011;7475;53.558;9.970;2023-04-15T02:15:09;6.00;;;5.40;;
14766;SDS011;7475;53.558;9.970;2023-04-15T02:17:35;6.30;;;5.70;;
14766;SDS011;7475;53.558;9.970;2023-04-15T02:20:00;6.85;;;6.03;;
14766;SDS011;7475;53.558;9.970;2023-04-15T02:22:25;6.82;;;6.13;;
14766;SDS011;7475;53.558;9.970;2023-04-15T02:24:51;5.88;;;5.30;;
14766;SDS011;7475;53.558;9.970;2023-04-15T02:27:16;5.57;;;5.07;;
14766;SDS011;7475;53.558;9.970;2023-04-15T02:29:42;8.75;;;7.25;;
14766;SDS011;7475;53.558;9.970;2023-04-15T02:32:08;6.35;;;5.75;;
14766;SDS011;7475;53.558;9.970;2023-04-15T02:34:33;6.80;;;6.18;;
14766;SDS011;7475;53.558;9.970;2023-04-15T02:36:58;6.22;;;5.63;;
14766;SDS011;7475;53.558;9.970;2023-04-15T02:39:23;6.23;;;5.63;;
14766;SDS011;7475;53.558;9.970;2023-04-15T02:41:49;7.57;;;6.82;;
14766;SDS011;7475;53.558;9.970;2023-04-15T02:44:16;6.55;;;5.90;;
14766;SDS011;7475;53.558;9.970;2023-04-15T02:46:45;7.45;;;6.75;;
14766;SDS011;7475;53.558;9.970;2023-04-15T02:49:14;6.80;;;6.10;;
14766;SDS011;7475;53.558;9.970;2023-04-15T02:51:40;8.93;;;7.07;;
14766;SDS011;7475;53.558;9.970;2023-04-15T02:54:05;7.30;;;6.57;;
14766;SDS011;7475;53.558;9.970;2023-04-15T02:56:31;8.13;;;7.30;;
14766;SDS011;7475;53.558;9.970;2023-04-15T02:58:57;7.63;;;6.82;;
14766;SDS011;7475;53.558;9.970;2023-04-15T03:01:22;9.93;;;7.53;;
14766;SDS011;7475;53.558;9.970;2023-04-15T03:03:47;8.32;;;7.43;;
14766;SDS011;7475;53.558;9.970;2023-04-15T03:06:12;14.50;;;12.13;;
14766;SDS011;7475;53.558;9.970;2023-04-15T03:08:38;9.43;;;7.97;;
14766;SDS011;7475;53.558;9.970;2023-04-15T03:11:03;9.02;;;7.28;;
14766;SDS011;7475;53.558;9.970;2023-04-15T03:13:28;8.82;;;7.93;;
14766;SDS011;7475;53.558;9.970;2023-04-15T03:15:54;7.97;;;6.97;;
14766;SDS011;7475;53.558;9.970;2023-04-15T03:18:19;9.45;;;8.45;;
14766;SDS011;7475;53.558;9.970;2023-04-15T03:20:45;8.60;;;7.57;;
14766;SDS011;7475;53.558;9.970;2023-04-15T03:23:11;8.15;;;7.03;;
14766;SDS011;7475;53.558;9.970;2023-04-15T03:25:36;10.27;;;9.03;;
14766;SDS011;7475;53.558;9.970;2023-04-15T03:28:02;9.75;;;8.18;;
14766;SDS011;7475;53.558;9.970;2023-04-15T03:30:27;9.60;;;7.15;;
14766;SDS011;7475;53.558;9.970;2023-04-15T03:32:52;11.82;;;10.13;;
14766;SDS011;7475;53.558;9.970;2023-04-15T03:35:18;9.18;;;8.27;;
14766;SDS011;7475;53.558;9.970;2023-04-15T03:37:43;8.88;;;7.97;;
14766;SDS011;7475;53.558;9.970;2023-04-15T03:40:08;8.60;;;7.32;;
14766;SDS011;7475;53.558;9.970;2023-04-15T03:42:34;9.05;;;7.63;;
14766;SDS011;7475;53.558;9.970;2023-04-15T03:44:59;8.68;;;7.78;;
14766;SDS011;7475;53.558;9.970;2023-04-15T03:47:24;9.45;;;8.45;;
14766;SDS011;7475;53.558;9.970;2023-04-15T03:49:50;24.42;;;20.45;;
14766;SDS011;7475;53.558;9.970;2023-04-15T03:52:15;12.52;;;10.50;;
14766;SDS011;7475;53.558;9.970;2023-04-15T03:54:40;11.50;;;8.80;;
14766;SDS011;7475;53.558;9.970;2023-04-15T03:57:05;44.50;;;32.30;;
14766;SDS011;7475;53.558;9.970;2023-04-15T03:59:31;13.73;;;10.73;;
14766;SDS011;7475;53.558;9.970;2023-04-15T04:01:56;12.40;;;10.20;;
14766;SDS011;7475;53.558;9.970;2023-04-15T04:04:21;26.08;;;20.27;;
14766;SDS011;7475;53.558;9.970;2023-04-15T04:06:46;14.07;;;11.38;;
14766;SDS011;7475;53.558;9.970;2023-04-15T04:09:11;12.18;;;10.10;;
14766;SDS011;7475;53.558;9.970;2023-04-15T04:11:36;11.55;;;9.10;;
14766;SDS011;7475;53.558;9.970;2023-04-15T04:14:02;17.45;;;13.27;;
14766;SDS011;7475;53.558;9.970;2023-04-15T04:16:27;12.00;;;9.93;;
14766;SDS011;7475;53.558;9.970;2023-04-15T04:18:52;14.57;;;12.35;;
14766;SDS011;7475;53.558;9.970;2023-04-15T04:21:17;15.20;;;10.80;;
14766;SDS011;7475;53.558;9.970;2023-04-15T04:23:43;11.68;;;9.90;;
14766;SDS011;7475;53.558;9.970;2023-04-15T04:26:09;13.13;;;10.65;;
14766;SDS011;7475;53.558;9.970;2023-04-15T04:28:34;12.32;;;10.27;;
14766;SDS011;7475;53.558;9.970;2023-04-15T04:31:00;13.75;;;10.70;;
14766;SDS011;7475;53.558;9.970;2023-04-15T04:33:25;12.00;;;10.35;;
14766;SDS011;7475;53.558;9.970;2023-04-15T04:35:50;14.63;;;11.27;;
14766;SDS011;7475;53.558;9.970;2023-04-15T04:38:16;13.50;;;11.27;;
14766;SDS011;7475;53.558;9.970;2023-04-15T04:40:41;16.08;;;12.50;;
14766;SDS011;7475;53.558;9.970;2023-04-15T04:43:06;15.40;;;12.07;;
14766;SDS011;7475;53.558;9.970;2023-04-15T04:45:31;13.52;;;11.52;;
14766;SDS011;7475;53.558;9.970;2023-04-15T04:47:56;15.48;;;12.48;;
14766;SDS011;7475;53.558;9.970;2023-04-15T04:50:22;15.80;;;12.95;;
14766;SDS011;7475;53.558;9.970;2023-04-15T04:52:47;18.42;;;14.60;;
14766;SDS011;7475;53.558;9.970;2023-04-15T04:55:12;18.50;;;14.75;;
14766;SDS011;7475;53.558;9.970;2023-04-15T04:57:37;17.33;;;13.77;;
14766;SDS011;7475;53.558;9.970;2023-04-15T05:00:06;20.20;;;14.25;;
14766;SDS011;7475;53.558;9.970;2023-04-15T05:02:32;22.40;;;15.73;;
14766;SDS011;7475;53.558;9.970;2023-04-15T05:04:57;22.23;;;16.08;;
14766;SDS011;7475;53.558;9.970;2023-04-15T05:07:22;21.55;;;16.77;;
14766;SDS011;7475;53.558;9.970;2023-04-15T05:09:48;20.45;;;15.73;;
14766;SDS011;7475;53.558;9.970;2023-04-15T05:12:13;21.02;;;16.05;;
14766;SDS011;7475;53.558;9.970;2023-04-15T05:14:39;22.48;;;17.05;;
14766;SDS011;7475;53.558;9.970;2023-04-15T05:17:04;20.13;;;16.58;;
14766;SDS011;7475;53.558;9.970;2023-04-15T05:19:30;22.02;;;15.95;;
14766;SDS011;7475;53.558;9.970;2023-04-15T05:21:55;22.83;;;16.53;;
14766;SDS011;7475;53.558;9.970;2023-04-15T05:24:20;23.13;;;17.65;;
14766;SDS011;7475;53.558;9.970;2023-04-15T05:26:46;21.98;;;17.67;;
14766;SDS011;7475;53.558;9.970;2023-04-15T05:29:11;24.23;;;17.92;;
14766;SDS011;7475;53.558;9.970;2023-04-15T05:31:36;22.58;;;17.83;;
14766;SDS011;7475;53.558;9.970;2023-04-15T05:34:01;23.70;;;17.90;;
14766;SDS011;7475;53.558;9.970;2023-04-15T05:36:27;25.17;;;19.33;;
14766;SDS011;7475;53.558;9.970;2023-04-15T05:38:52;23.00;;;17.70;;
14766;SDS011;7475;53.558;9.970;2023-04-15T05:41:18;23.48;;;17.40;;
14766;SDS011;7475;53.558;9.970;2023-04-15T05:43:43;24.73;;;20.02;;
14766;SDS011;7475;53.558;9.970;2023-04-15T05:46:08;24.00;;;18.25;;
14766;SDS011;7475;53.558;9.970;2023-04-15T05:48:34;25.63;;;19.77;;
14766;SDS011;7475;53.558;9.970;2023-04-15T05:50:59;23.67;;;18.27;;
14766;SDS011;7475;53.558;9.970;2023-04-15T05:53:25;25.40;;;18.52;;
14766;SDS011;7475;53.558;9.970;2023-04-15T05:55:50;23.48;;;18.90;;
14766;SDS011;7475;53.558;9.970;2023-04-15T05:58:16;23.13;;;18.70;;
14766;SDS011;7475;53.558;9.970;2023-04-15T06:00:41;24.48;;;18.10;;
14766;SDS011;7475;53.558;9.970;2023-04-15T06:03:06;25.75;;;19.60;;
14766;SDS011;7475;53.558;9.970;2023-04-15T06:05:31;27.30;;;20.55;;
14766;SDS011;7475;53.558;9.970;2023-04-15T06:07:57;23.20;;;18.80;;
14766;SDS011;7475;53.558;9.970;2023-04-15T06:10:22;25.80;;;19.98;;
14766;SDS011;7475;53.558;9.970;2023-04-15T06:12:47;26.00;;;18.90;;
14766;SDS011;7475;53.558;9.970;2023-04-15T06:15:13;24.48;;;19.60;;
14766;SDS011;7475;53.558;9.970;2023-04-15T06:17:38;24.15;;;19.20;;
14766;SDS011;7475;53.558;9.970;2023-04-15T06:20:03;24.23;;;19.42;;
14766;SDS011;7475;53.558;9.970;2023-04-15T06:22:28;22.98;;;19.65;;
14766;SDS011;7475;53.558;9.970;2023-04-15T06:24:54;25.00;;;19.35;;
14766;SDS011;7475;53.558;9.970;2023-04-15T06:27:19;25.92;;;19.52;;
14766;SDS011;7475;53.558;9.970;2023-04-15T06:29:44;28.05;;;21.35;;
14766;SDS011;7475;53.558;9.970;2023-04-15T06:32:10;23.38;;;19.48;;
14766;SDS011;7475;53.558;9.970;2023-04-15T06:34:36;23.50;;;19.33;;
14766;SDS011;7475;53.558;9.970;2023-04-15T06:37:01;24.77;;;19.92;;
14766;SDS011;7475;53.558;9.970;2023-04-15T06:39:26;28.90;;;22.15;;
14766;SDS011;7475;53.558;9.970;2023-04-15T06:41:51;27.08;;;20.75;;
14766;SDS011;7475;53.558;9.970;2023-04-15T06:44:17;31.67;;;23.27;;
14766;SDS011;7475;53.558;9.970;2023-04-15T06:46:42;31.80;;;23.65;;
14766;SDS011;7475;53.558;9.970;2023-04-15T06:49:07;28.27;;;22.25;;
14766;SDS011;7475;53.558;9.970;2023-04-15T06:51:33;28.58;;;22.80;;
14766;SDS011;7475;53.558;9.970;2023-04-15T06:53:59;29.90;;;23.02;;
14766;SDS011;7475;53.558;9.970;2023-04-15T06:56:24;29.90;;;23.15;;
14766;SDS011;7475;53.558;9.970;2023-04-15T06:58:49;27.23;;;22.67;;
14766;SDS011;7475;53.558;9.970;2023-04-15T07:01:15;30.95;;;23.92;;
14766;SDS011;7475;53.558;9.970;2023-04-15T07:03:40;32.58;;;25.27;;
14766;SDS011;7475;53.558;9.970;2023-04-15T07:06:06;29.95;;;24.70;;
14766;SDS011;7475;53.558;9.970;2023-04-15T07:08:32;31.42;;;24.90;;
14766;SDS011;7475;53.558;9.970;2023-04-15T07:10:57;30.98;;;25.30;;
14766;SDS011;7475;53.558;9.970;2023-04-15T07:13:22;28.77;;;24.00;;
14766;SDS011;7475;53.558;9.970;2023-04-15T07:15:48;27.77;;;23.13;;
14766;SDS011;7475;53.558;9.970;2023-04-15T07:18:13;31.08;;;24.33;;
14766;SDS011;7475;53.558;9.970;2023-04-15T07:20:38;28.75;;;23.27;;
14766;SDS011;7475;53.558;9.970;2023-04-15T07:23:03;28.80;;;23.25;;
14766;SDS011;7475;53.558;9.970;2023-04-15T07:25:29;31.83;;;25.17;;
14766;SDS011;7475;53.558;9.970;2023-04-15T07:27:54;40.30;;;26.52;;
14766;SDS011;7475;53.558;9.970;2023-04-15T07:30:19;30.63;;;24.65;;
14766;SDS011;7475;53.558;9.970;2023-04-15T07:32:44;31.63;;;24.88;;
14766;SDS011;7475;53.558;9.970;2023-04-15T07:35:10;36.20;;;25.42;;
14766;SDS011;7475;53.558;9.970;2023-04-15T07:37:35;32.25;;;23.60;;
14766;SDS011;7475;53.558;9.970;2023-04-15T07:40:01;31.10;;;25.08;;
14766;SDS011;7475;53.558;9.970;2023-04-15T07:42:28;30.75;;;24.65;;
14766;SDS011;7475;53.558;9.970;2023-04-15T07:44:53;33.00;;;25.33;;
14766;SDS011;7475;53.558;9.970;2023-04-15T07:47:19;32.22;;;25.38;;
14766;SDS011;7475;53.558;9.970;2023-04-15T07:49:44;35.17;;;25.55;;
14766;SDS011;7475;53.558;9.970;2023-04-15T07:52:09;35.58;;;27.00;;
14766;SDS011;7475;53.558;9.970;2023-04-15T07:54:35;31.95;;;26.30;;
14766;SDS011;7475;53.558;9.970;2023-04-15T07:57:00;33.05;;;25.13;;
14766;SDS011;7475;53.558;9.970;2023-04-15T07:59:25;33.05;;;24.48;;
14766;SDS011;7475;53.558;9.970;2023-04-15T08:01:52;29.67;;;23.70;;
14766;SDS011;7475;53.558;9.970;2023-04-15T08:04:18;32.47;;;26.00;;
14766;SDS011;7475;53.558;9.970;2023-04-15T08:06:43;32.77;;;25.70;;
14766;SDS011;7475;53.558;9.970;2023-04-15T08:09:08;34.30;;;27.08;;
14766;SDS011;7475;53.558;9.970;2023-04-15T08:11:33;32.00;;;25.17;;
14766;SDS011;7475;53.558;9.970;2023-04-15T08:13:59;31.27;;;25.33;;
14766;SDS011;7475;53.558;9.970;2023-04-15T08:16:25;33.15;;;27.25;;
14766;SDS011;7475;53.558;9.970;2023-04-15T08:18:53;37.50;;;27.52;;
14766;SDS011;7475;53.558;9.970;2023-04-15T08:21:18;35.90;;;27.58;;
14766;SDS011;7475;53.558;9.970;2023-04-15T08:23:44;33.90;;;25.70;;
14766;SDS011;7475;53.558;9.970;2023-04-15T08:26:09;35.63;;;27.35;;
14766;SDS011;7475;53.558;9.970;2023-04-15T08:28:36;33.50;;;27.33;;
14766;SDS011;7475;53.558;9.970;2023-04-15T08:31:02;32.47;;;27.15;;
14766;SDS011;7475;53.558;9.970;2023-04-15T08:33:27;35.38;;;27.65;;
14766;SDS011;7475;53.558;9.970;2023-04-15T08:35:53;34.40;;;26.75;;
14766;SDS011;7475;53.558;9.970;2023-04-15T08:38:18;30.67;;;26.30;;
14766;SDS011;7475;53.558;9.970;2023-04-15T08:40:43;36.22;;;28.55;;
14766;SDS011;7475;53.558;9.970;2023-04-15T08:43:10;32.78;;;26.77;;
14766;SDS011;7475;53.558;9.970;2023-04-15T08:45:39;33.33;;;26.63;;
14766;SDS011;7475;53.558;9.970;2023-04-15T08:48:05;33.13;;;26.73;;
14766;SDS011;7475;53.558;9.970;2023-04-15T08:50:31;32.83;;;25.83;;
14766;SDS011;7475;53.558;9.970;2023-04-15T08:53:00;34.20;;;26.98;;
14766;SDS011;7475;53.558;9.970;2023-04-15T08:55:27;31.70;;;25.35;;
14766;SDS011;7475;53.558;9.970;2023-04-15T08:57:53;30.42;;;25.98;;
14766;SDS011;7475;53.558;9.970;2023-04-15T09:00:20;31.80;;;24.98;;
14766;SDS011;7475;53.558;9.970;2023-04-15T09:02:46;29.27;;;25.25;;
14766;SDS011;7475;53.558;9.970;2023-04-15T09:05:11;30.02;;;25.30;;
14766;SDS011;7475;53.558;9.970;2023-04-15T09:07:36;28.23;;;24.70;;
14766;SDS011;7475;53.558;9.970;2023-04-15T09:10:02;30.40;;;24.30;;
14766;SDS011;7475;53.558;9.970;2023-04-15T09:12:27;30.23;;;24.95;;
14766;SDS011;7475;53.558;9.970;2023-04-15T09:14:53;31.02;;;23.85;;
14766;SDS011;7475;53.558;9.970;2023-04-15T09:17:18;27.52;;;23.88;;
14766;SDS011;7475;53.558;9.970;2023-04-15T09:19:44;27.70;;;24.13;;
14766;SDS011;7475;53.558;9.970;2023-04-15T09:22:10;28.42;;;25.20;;
14766;SDS011;7475;53.558;9.970;2023-04-15T09:24:36;32.70;;;25.65;;
14766;SDS011;7475;53.558;9.970;2023-04-15T09:27:02;32.20;;;25.58;;
14766;SDS011;7475;53.558;9.970;2023-04-15T09:29:27;31.73;;;25.27;;
14766;SDS011;7475;53.558;9.970;2023-04-15T09:31:52;33.75;;;25.35;;
14766;SDS011;7475;53.558;9.970;2023-04-15T09:34:18;29.70;;;24.45;;
14766;SDS011;7475;53.558;9.970;2023-04-15T09:39:11;29.35;;;23.35;;
14766;SDS011;7475;53.558;9.970;2023-04-15T09:41:37;28.75;;;24.30;;
14766;SDS011;7475;53.558;9.970;2023-04-15T09:44:03;26.80;;;23.45;;
14766;SDS011;7475;53.558;9.970;2023-04-15T09:46:40;26.02;;;23.23;;
14766;SDS011;7475;53.558;9.970;2023-04-15T09:49:06;26.85;;;23.48;;
14766;SDS011;7475;53.558;9.970;2023-04-15T09:51:33;25.48;;;21.92;;
14766;SDS011;7475;53.558;9.970;2023-04-15T09:53:59;29.30;;;24.23;;
14766;SDS011;7475;53.558;9.970;2023-04-15T09:56:24;27.77;;;22.55;;
14766;SDS011;7475;53.558;9.970;2023-04-15T09:58:56;26.20;;;22.73;;
14766;SDS011;7475;53.558;9.970;2023-04-15T10:01:21;24.25;;;21.48;;
14766;SDS011;7475;53.558;9.970;2023-04-15T10:03:46;28.92;;;24.05;;
14766;SDS011;7475;53.558;9.970;2023-04-15T10:06:12;25.75;;;22.02;;
14766;SDS011;7475;53.558;9.970;2023-04-15T10:08:38;25.65;;;21.13;;
14766;SDS011;7475;53.558;9.970;2023-04-15T10:11:08;22.80;;;20.35;;
14766;SDS011;7475;53.558;9.970;2023-04-15T10:13:33;24.73;;;21.75;;
14766;SDS011;7475;53.558;9.970;2023-04-15T10:18:31;24.02;;;21.50;;
14766;SDS011;7475;53.558;9.970;2023-04-15T10:20:58;39.28;;;34.22;;
14766;SDS011;7475;53.558;9.970;2023-04-15T10:23:24;25.42;;;19.75;;
14766;SDS011;7475;53.558;9.970;2023-04-15T10:25:50;25.92;;;19.90;;
14766;SDS011;7475;53.558;9.970;2023-04-15T10:28:16;21.63;;;18.08;;
14766;SDS011;7475;53.558;9.970;2023-04-15T10:30:41;23.70;;;18.50;;
14766;SDS011;7475;53.558;9.970;2023-04-15T10:33:07;20.15;;;17.90;;
14766;SDS011;7475;53.558;9.970;2023-04-15T10:35:33;20.05;;;18.00;;
14766;SDS011;7475;53.558;9.970;2023-04-15T10:37:58;19.52;;;17.35;;
14766;SDS011;7475;53.558;9.970;2023-04-15T10:40:24;20.30;;;18.13;;
14766;SDS011;7475;53.558;9.970;2023-04-15T10:42:51;21.30;;;18.17;;
14766;SDS011;7475;53.558;9.970;2023-04-15T10:45:17;20.45;;;18.30;;
14766;SDS011;7475;53.558;9.970;2023-04-15T10:47:42;21.38;;;18.13;;
14766;SDS011;7475;53.558;9.970;2023-04-15T10:50:08;19.35;;;17.27;;
14766;SDS011;7475;53.558;9.970;2023-04-15T10:52:33;20.63;;;18.33;;
14766;SDS011;7475;53.558;9.970;2023-04-15T10:55:40;16.58;;;14.80;;
14766;SDS011;7475;53.558;9.970;2023-04-15T10:57:48;18.30;;;16.38;;
14766;SDS011;7475;53.558;9.970;2023-04-15T11:00:15;16.63;;;15.02;;
14766;SDS011;7475;53.558;9.970;2023-04-15T11:03:33;16.92;;;14.63;;
14766;SDS011;7475;53.558;9.970;2023-04-15T11:08:10;17.33;;;13.50;;
14766;SDS011;7475;53.558;9.970;2023-04-15T11:13:05;12.82;;;11.38;;
14766;SDS011;7475;53.558;9.970;2023-04-15T11:18:10;12.68;;;9.15;;
14766;SDS011;7475;53.558;9.970;2023-04-15T11:20:36;13.85;;;9.98;;
14766;SDS011;7475;53.558;9.970;2023-04-15T11:23:02;11.13;;;8.95;;
14766;SDS011;7475;53.558;9.970;2023-04-15T11:25:28;10.45;;;9.25;;
14766;SDS011;7475;53.558;9.970;2023-04-15T11:27:54;9.27;;;8.38;;
14766;SDS011;7475;53.558;9.970;2023-04-15T11:30:21;10.18;;;8.68;;
14766;SDS011;7475;53.558;9.970;2023-04-15T11:32:50;8.98;;;7.53;;
14766;SDS011;7475;53.558;9.970;2023-04-15T11:35:16;12.07;;;9.38;;
14766;SDS011;7475;53.558;9.970;2023-04-15T11:37:42;10.40;;;8.63;;
14766;SDS011;7475;53.558;9.970;2023-04-15T11:40:07;8.32;;;7.47;;
14766;SDS011;7475;53.558;9.970;2023-04-15T11:42:42;9.60;;;8.60;;
14766;SDS011;7475;53.558;9.970;2023-04-15T11:45:08;11.60;;;8.30;;
14766;SDS011;7475;53.558;9.970;2023-04-15T11:47:34;9.75;;;8.75;;
14766;SDS011;7475;53.558;9.970;2023-04-15T11:50:19;10.38;;;9.30;;
14766;SDS011;7475;53.558;9.970;2023-04-15T11:52:58;11.35;;;9.52;;
14766;SDS011;7475;53.558;9.970;2023-04-15T11:55:23;10.85;;;9.25;;
14766;SDS011;7475;53.558;9.970;2023-04-15T11:58:10;11.10;;;10.00;;
14766;SDS011;7475;53.558;9.970;2023-04-15T12:00:34;11.48;;;10.38;;
14766;SDS011;7475;53.558;9.970;2023-04-15T12:03:42;11.20;;;9.25;;
14766;SDS011;7475;53.558;9.970;2023-04-15T12:11:17;12.35;;;9.93;;
14766;SDS011;7475;53.558;9.970;2023-04-15T12:13:43;9.77;;;8.80;;
14766;SDS011;7475;53.558;9.970;2023-04-15T12:16:08;8.27;;;7.10;;
14766;SDS011;7475;53.558;9.970;2023-04-15T12:18:33;7.70;;;7.00;;
14766;SDS011;7475;53.558;9.970;2023-04-15T12:21:10;8.55;;;7.65;;
14766;SDS011;7475;53.558;9.970;2023-04-15T12:23:39;10.15;;;8.13;;
14766;SDS011;7475;53.558;9.970;2023-04-15T12:26:11;15.43;;;8.90;;
14766;SDS011;7475;53.558;9.970;2023-04-15T12:28:37;8.35;;;7.55;;
14766;SDS011;7475;53.558;9.970;2023-04-15T12:31:10;8.20;;;7.40;;
14766;SDS011;7475;53.558;9.970;2023-04-15T12:33:37;9.02;;;7.93;;
14766;SDS011;7475;53.558;9.970;2023-04-15T12:36:03;10.00;;;9.10;;
14766;SDS011;7475;53.558;9.970;2023-04-15T12:38:28;9.77;;;8.23;;
14766;SDS011;7475;53.558;9.970;2023-04-15T12:40:53;10.15;;;7.95;;
14766;SDS011;7475;53.558;9.970;2023-04-15T12:43:19;10.73;;;7.78;;
14766;SDS011;7475;53.558;9.970;2023-04-15T12:45:44;10.63;;;7.15;;
14766;SDS011;7475;53.558;9.970;2023-04-15T12:48:09;10.10;;;7.33;;
14766;SDS011;7475;53.558;9.970;2023-04-15T12:50:35;8.90;;;7.93;;
14766;SDS011;7475;53.558;9.970;2023-04-15T12:53:00;10.70;;;8.38;;
14766;SDS011;7475;53.558;9.970;2023-04-15T12:55:25;14.35;;;10.95;;
14766;SDS011;7475;53.558;9.970;2023-04-15T12:57:51;12.10;;;10.05;;
14766;SDS011;7475;53.558;9.970;2023-04-15T13:00:16;8.60;;;7.70;;
14766;SDS011;7475;53.558;9.970;2023-04-15T13:02:42;9.55;;;8.63;;
14766;SDS011;7475;53.558;9.970;2023-04-15T13:05:08;68.85;;;61.50;;
14766;SDS011;7475;53.558;9.970;2023-04-15T13:07:33;168.98;;;143.60;;
14766;SDS011;7475;53.558;9.970;2023-04-15T13:09:58;10.77;;;9.73;;
14766;SDS011;7475;53.558;9.970;2023-04-15T13:12:23;13.70;;;11.07;;
14766;SDS011;7475;53.558;9.970;2023-04-15T13:14:49;10.07;;;9.05;;
14766;SDS011;7475;53.558;9.970;2023-04-15T13:17:14;10.85;;;8.52;;
14766;SDS011;7475;53.558;9.970;2023-04-15T13:19:42;10.02;;;8.30;;
14766;SDS011;7475;53.558;9.970;2023-04-15T13:22:08;9.00;;;8.10;;
14766;SDS011;7475;53.558;9.970;2023-04-15T13:24:33;9.18;;;8.27;;
14766;SDS011;7475;53.558;9.970;2023-04-15T13:26:58;11.70;;;8.05;;
14766;SDS011;7475;53.558;9.970;2023-04-15T13:29:23;9.13;;;8.20;;
14766;SDS011;7475;53.558;9.970;2023-04-15T13:31:48;8.43;;;7.72;;
14766;SDS011;7475;53.558;9.970;2023-04-15T13:34:14;10.52;;;9.30;;
14766;SDS011;7475;53.558;9.970;2023-04-15T13:36:39;11.68;;;8.90;;
14766;SDS011;7475;53.558;9.970;2023-04-15T13:39:04;7.93;;;6.72;;
14766;SDS011;7475;53.558;9.970;2023-04-15T13:41:30;7.83;;;6.97;;
14766;SDS011;7475;53.558;9.970;2023-04-15T13:43:55;7.53;;;6.83;;
14766;SDS011;7475;53.558;9.970;2023-04-15T13:46:20;7.75;;;6.95;;
14766;SDS011;7475;53.558;9.970;2023-04-15T13:48:45;7.47;;;6.77;;
14766;SDS011;7475;53.558;9.970;2023-04-15T13:51:11;8.25;;;7.35;;
14766;SDS011;7475;53.558;9.970;2023-04-15T13:53:36;7.47;;;6.80;;
14766;SDS011;7475;53.558;9.970;2023-04-15T13:56:01;8.05;;;7.13;;
14766;SDS011;7475;53.558;9.970;2023-04-15T13:58:26;7.67;;;6.90;;
14766;SDS011;7475;53.558;9.970;2023-04-15T14:00:51;10.48;;;9.43;;
14766;SDS011;7475;53.558;9.970;2023-04-15T14:03:17;7.27;;;5.90;;
14766;SDS011;7475;53.558;9.970;2023-04-15T14:05:42;6.87;;;6.17;;
14766;SDS011;7475;53.558;9.970;2023-04-15T14:08:07;6.05;;;5.45;;
14766;SDS011;7475;53.558;9.970;2023-04-15T14:10:32;6.93;;;6.03;;
14766;SDS011;7475;53.558;9.970;2023-04-15T14:12:58;5.97;;;5.38;;
14766;SDS011;7475;53.558;9.970;2023-04-15T14:15:23;6.63;;;5.87;;
14766;SDS011;7475;53.558;9.970;2023-04-15T14:17:48;6.23;;;5.63;;
14766;SDS011;7475;53.558;9.970;2023-04-15T14:20:13;6.57;;;5.90;;
14766;SDS011;7475;53.558;9.970;2023-04-15T14:22:38;6.60;;;6.00;;
14766;SDS011;7475;53.558;9.970;2023-04-15T14:25:04;7.80;;;5.83;;
14766;SDS011;7475;53.558;9.970;2023-04-15T14:27:30;7.20;;;6.13;;
14766;SDS011;7475;53.558;9.970;2023-04-15T14:29:55;6.85;;;6.25;;
14766;SDS011;7475;53.558;9.970;2023-04-15T14:32:21;7.78;;;6.70;;
14766;SDS011;7475;53.558;9.970;2023-04-15T14:34:46;6.60;;;6.00;;
14766;SDS011;7475;53.558;9.970;2023-04-15T14:37:12;6.47;;;5.73;;
14766;SDS011;7475;53.558;9.970;2023-04-15T14:39:37;7.55;;;6.20;;
14766;SDS011;7475;53.558;9.970;2023-04-15T14:42:02;8.00;;;6.05;;
14766;SDS011;7475;53.558;9.970;2023-04-15T14:44:27;6.97;;;6.32;;
14766;SDS011;7475;53.558;9.970;2023-04-15T14:46:53;7.40;;;6.80;;
14766;SDS011;7475;53.558;9.970;2023-04-15T14:49:18;6.35;;;5.75;;
14766;SDS011;7475;53.558;9.970;2023-04-15T14:51:44;10.38;;;6.40;;
14766;SDS011;7475;53.558;9.970;2023-04-15T14:54:10;7.50;;;6.70;;
14766;SDS011;7475;53.558;9.970;2023-04-15T14:56:35;6.00;;;5.40;;